sensor_id;sensor_type;location;lat;lon;timestamp;P1;durP1;ratioP1;P2;durP2;ratioP2
12163;SDS011;6145;50.192;10.064;2022-11-20T00:01:19;18.00;;;15.27;;
12163;SDS011;6145;50.192;10.064;2022-11-20T00:03:48;16.93;;;14.23;;
12163;SDS011;6145;50.192;10.064;2022-11-20T00:06:17;18.53;;;15.80;;
12163;SDS011;6145;50.192;10.064;2022-11-20T00:08:45;16.50;;;14.23;;
12163;SDS011;6145;50.192;10.064;2022-11-20T00:11:12;19.07;;;15.37;;
12163;SDS011;6145;50.192;10.064;2022-11-20T00:13:40;17.97;;;14.50;;
12163;SDS011;6145;50.192;10.064;2022-11-20T00:16:09;18.07;;;14.77;;
12163;SDS011;6145;50.192;10.064;2022-11-20T00:18:37;16.63;;;13.70;;
12163;SDS011;6145;50.192;10.064;2022-11-20T00:21:04;17.03;;;15.00;;
12163;SDS011;6145;50.192;10.064;2022-11-20T00:23:34;17.73;;;15.00;;
12163;SDS011;6145;50.192;10.064;2022-11-20T00:26:01;17.90;;;14.93;;
12163;SDS011;6145;50.192;10.064;2022-11-20T00:28:29;17.27;;;14.63;;
12163;SDS011;6145;50.192;10.064;2022-11-20T00:31:00;16.53;;;14.10;;
12163;SDS011;6145;50.192;10.064;2022-11-20T00:33:28;18.17;;;14.47;;
12163;SDS011;6145;50.192;10.064;2022-11-20T00:35:58;18.73;;;15.17;;
12163;SDS011;6145;50.192;10.064;2022-11-20T00:38:26;18.03;;;14.97;;
12163;SDS011;6145;50.192;10.064;2022-11-20T00:40:56;18.37;;;15.10;;
12163;SDS011;6145;50.192;10.064;2022-11-20T00:43:23;19.20;;;15.37;;
12163;SDS011;6145;50.192;10.064;2022-11-20T00:45:50;18.03;;;15.33;;
12163;SDS011;6145;50.192;10.064;2022-11-20T00:48:22;17.17;;;14.40;;
12163;SDS011;6145;50.192;10.064;2022-11-20T00:50:48;20.27;;;15.27;;
12163;SDS011;6145;50.192;10.064;2022-11-20T00:53:15;18.07;;;14.67;;
12163;SDS011;6145;50.192;10.064;2022-11-20T00:55:42;18.47;;;16.00;;
12163;SDS011;6145;50.192;10.064;2022-11-20T00:58:10;17.73;;;15.30;;
12163;SDS011;6145;50.192;10.064;2022-11-20T01:00:38;18.37;;;15.83;;
12163;SDS011;6145;50.192;10.064;2022-11-20T01:03:05;17.77;;;14.70;;
12163;SDS011;6145;50.192;10.064;2022-11-20T01:05:33;19.70;;;15.30;;
12163;SDS011;6145;50.192;10.064;2022-11-20T01:08:01;19.17;;;15.87;;
12163;SDS011;6145;50.192;10.064;2022-11-20T01:10:28;18.30;;;14.10;;
12163;SDS011;6145;50.192;10.064;2022-11-20T01:12:55;18.73;;;15.63;;
12163;SDS011;6145;50.192;10.064;2022-11-20T01:15:37;17.73;;;14.60;;
12163;SDS011;6145;50.192;10.064;2022-11-20T01:18:04;18.90;;;15.53;;
12163;SDS011;6145;50.192;10.064;2022-11-20T01:20:33;17.50;;;14.60;;
12163;SDS011;6145;50.192;10.064;2022-11-20T01:23:01;16.57;;;14.23;;
12163;SDS011;6145;50.192;10.064;2022-11-20T01:25:28;19.30;;;16.43;;
12163;SDS011;6145;50.192;10.064;2022-11-20T01:27:55;19.73;;;16.47;;
12163;SDS011;6145;50.192;10.064;2022-11-20T01:30:22;20.27;;;15.93;;
12163;SDS011;6145;50.192;10.064;2022-11-20T01:32:50;17.77;;;14.90;;
12163;SDS011;6145;50.192;10.064;2022-11-20T01:35:17;20.93;;;17.33;;
12163;SDS011;6145;50.192;10.064;2022-11-20T01:37:43;17.80;;;14.20;;
12163;SDS011;6145;50.192;10.064;2022-11-20T01:40:11;19.67;;;16.50;;
12163;SDS011;6145;50.192;10.064;2022-11-20T01:42:38;18.63;;;15.13;;
12163;SDS011;6145;50.192;10.064;2022-11-20T01:48:24;20.23;;;16.17;;
12163;SDS011;6145;50.192;10.064;2022-11-20T01:50:54;18.80;;;15.53;;
12163;SDS011;6145;50.192;10.064;2022-11-20T01:53:23;18.77;;;15.70;;
12163;SDS011;6145;50.192;10.064;2022-11-20T01:55:54;18.77;;;16.00;;
12163;SDS011;6145;50.192;10.064;2022-11-20T01:58:24;20.43;;;16.60;;
12163;SDS011;6145;50.192;10.064;2022-11-20T02:00:56;20.60;;;16.43;;
12163;SDS011;6145;50.192;10.064;2022-11-20T02:03:24;20.20;;;16.07;;
12163;SDS011;6145;50.192;10.064;2022-11-20T02:05:54;20.67;;;16.47;;
12163;SDS011;6145;50.192;10.064;2022-11-20T02:08:27;18.60;;;15.60;;
12163;SDS011;6145;50.192;10.064;2022-11-20T02:10:55;18.90;;;15.83;;
12163;SDS011;6145;50.192;10.064;2022-11-20T02:13:21;18.43;;;15.13;;
12163;SDS011;6145;50.192;10.064;2022-11-20T02:16:08;20.20;;;15.73;;
12163;SDS011;6145;50.192;10.064;2022-11-20T02:18:38;19.23;;;15.37;;
12163;SDS011;6145;50.192;10.064;2022-11-20T02:21:07;18.80;;;16.03;;
12163;SDS011;6145;50.192;10.064;2022-11-20T02:23:39;19.87;;;15.63;;
12163;SDS011;6145;50.192;10.064;2022-11-20T02:26:19;20.00;;;15.90;;
12163;SDS011;6145;50.192;10.064;2022-11-20T02:28:49;21.13;;;15.77;;
12163;SDS011;6145;50.192;10.064;2022-11-20T02:31:16;17.97;;;15.23;;
12163;SDS011;6145;50.192;10.064;2022-11-20T02:33:43;17.30;;;14.73;;
12163;SDS011;6145;50.192;10.064;2022-11-20T02:36:11;17.83;;;15.93;;
12163;SDS011;6145;50.192;10.064;2022-11-20T02:38:41;19.63;;;16.33;;
12163;SDS011;6145;50.192;10.064;2022-11-20T02:41:09;19.67;;;15.60;;
12163;SDS011;6145;50.192;10.064;2022-11-20T02:43:36;17.17;;;14.80;;
12163;SDS011;6145;50.192;10.064;2022-11-20T02:46:03;19.80;;;16.70;;
12163;SDS011;6145;50.192;10.064;2022-11-20T02:48:32;18.50;;;14.90;;
12163;SDS011;6145;50.192;10.064;2022-11-20T02:50:59;20.07;;;15.47;;
12163;SDS011;6145;50.192;10.064;2022-11-20T02:53:26;20.63;;;17.47;;
12163;SDS011;6145;50.192;10.064;2022-11-20T02:55:53;17.37;;;14.73;;
12163;SDS011;6145;50.192;10.064;2022-11-20T02:58:21;19.63;;;16.27;;
12163;SDS011;6145;50.192;10.064;2022-11-20T03:00:48;18.47;;;15.53;;
12163;SDS011;6145;50.192;10.064;2022-11-20T03:03:15;20.93;;;16.13;;
12163;SDS011;6145;50.192;10.064;2022-11-20T03:05:42;18.60;;;15.50;;
12163;SDS011;6145;50.192;10.064;2022-11-20T03:08:09;20.43;;;16.63;;
12163;SDS011;6145;50.192;10.064;2022-11-20T03:10:35;20.20;;;16.37;;
12163;SDS011;6145;50.192;10.064;2022-11-20T03:13:02;19.63;;;16.43;;
12163;SDS011;6145;50.192;10.064;2022-11-20T03:15:30;20.80;;;16.13;;
12163;SDS011;6145;50.192;10.064;2022-11-20T03:17:57;19.77;;;16.07;;
12163;SDS011;6145;50.192;10.064;2022-11-20T03:20:24;19.23;;;15.83;;
12163;SDS011;6145;50.192;10.064;2022-11-20T03:22:52;18.57;;;15.30;;
12163;SDS011;6145;50.192;10.064;2022-11-20T03:25:20;19.73;;;15.20;;
12163;SDS011;6145;50.192;10.064;2022-11-20T03:27:47;18.27;;;15.03;;
12163;SDS011;6145;50.192;10.064;2022-11-20T03:30:14;19.60;;;16.27;;
12163;SDS011;6145;50.192;10.064;2022-11-20T03:32:42;20.00;;;15.47;;
12163;SDS011;6145;50.192;10.064;2022-11-20T03:35:09;19.60;;;15.60;;
12163;SDS011;6145;50.192;10.064;2022-11-20T03:37:38;19.47;;;16.17;;
12163;SDS011;6145;50.192;10.064;2022-11-20T03:40:05;19.13;;;15.80;;
12163;SDS011;6145;50.192;10.064;2022-11-20T03:42:33;22.03;;;16.27;;
12163;SDS011;6145;50.192;10.064;2022-11-20T03:45:12;19.53;;;16.30;;
12163;SDS011;6145;50.192;10.064;2022-11-20T03:47:39;21.40;;;16.93;;
12163;SDS011;6145;50.192;10.064;2022-11-20T03:50:08;19.30;;;16.23;;
12163;SDS011;6145;50.192;10.064;2022-11-20T03:52:35;19.37;;;16.07;;
12163;SDS011;6145;50.192;10.064;2022-11-20T03:55:03;19.33;;;16.53;;
12163;SDS011;6145;50.192;10.064;2022-11-20T03:57:30;19.00;;;15.50;;
12163;SDS011;6145;50.192;10.064;2022-11-20T03:59:57;19.97;;;15.60;;
12163;SDS011;6145;50.192;10.064;2022-11-20T04:02:24;20.00;;;16.10;;
12163;SDS011;6145;50.192;10.064;2022-11-20T04:04:51;18.17;;;14.87;;
12163;SDS011;6145;50.192;10.064;2022-11-20T04:07:19;21.43;;;16.67;;
12163;SDS011;6145;50.192;10.064;2022-11-20T04:09:46;21.23;;;16.33;;
12163;SDS011;6145;50.192;10.064;2022-11-20T04:12:13;19.43;;;15.77;;
12163;SDS011;6145;50.192;10.064;2022-11-20T04:14:40;18.57;;;14.83;;
12163;SDS011;6145;50.192;10.064;2022-11-20T04:17:06;22.10;;;16.77;;
12163;SDS011;6145;50.192;10.064;2022-11-20T04:19:33;20.20;;;15.63;;
12163;SDS011;6145;50.192;10.064;2022-11-20T04:22:00;20.53;;;16.40;;
12163;SDS011;6145;50.192;10.064;2022-11-20T04:24:28;17.83;;;14.93;;
12163;SDS011;6145;50.192;10.064;2022-11-20T04:26:55;18.93;;;15.53;;
12163;SDS011;6145;50.192;10.064;2022-11-20T04:29:22;19.27;;;15.33;;
12163;SDS011;6145;50.192;10.064;2022-11-20T04:31:49;18.57;;;15.90;;
12163;SDS011;6145;50.192;10.064;2022-11-20T04:34:16;19.17;;;15.70;;
12163;SDS011;6145;50.192;10.064;2022-11-20T04:36:43;20.57;;;15.67;;
12163;SDS011;6145;50.192;10.064;2022-11-20T04:39:13;19.20;;;15.37;;
12163;SDS011;6145;50.192;10.064;2022-11-20T04:41:43;19.80;;;15.67;;
12163;SDS011;6145;50.192;10.064;2022-11-20T04:44:10;19.23;;;15.80;;
12163;SDS011;6145;50.192;10.064;2022-11-20T04:46:37;21.00;;;17.10;;
12163;SDS011;6145;50.192;10.064;2022-11-20T04:49:05;19.80;;;16.27;;
12163;SDS011;6145;50.192;10.064;2022-11-20T04:51:32;21.87;;;16.63;;
12163;SDS011;6145;50.192;10.064;2022-11-20T04:54:00;22.70;;;17.50;;
12163;SDS011;6145;50.192;10.064;2022-11-20T04:56:27;20.83;;;16.30;;
12163;SDS011;6145;50.192;10.064;2022-11-20T04:58:55;18.87;;;16.30;;
12163;SDS011;6145;50.192;10.064;2022-11-20T05:01:25;19.67;;;16.13;;
12163;SDS011;6145;50.192;10.064;2022-11-20T05:03:52;20.57;;;16.47;;
12163;SDS011;6145;50.192;10.064;2022-11-20T05:06:19;18.00;;;14.83;;
12163;SDS011;6145;50.192;10.064;2022-11-20T05:08:47;19.73;;;16.23;;
12163;SDS011;6145;50.192;10.064;2022-11-20T05:11:15;20.93;;;16.57;;
12163;SDS011;6145;50.192;10.064;2022-11-20T05:13:43;21.10;;;16.27;;
12163;SDS011;6145;50.192;10.064;2022-11-20T05:16:12;18.70;;;15.57;;
12163;SDS011;6145;50.192;10.064;2022-11-20T05:18:40;19.73;;;16.00;;
12163;SDS011;6145;50.192;10.064;2022-11-20T05:21:08;20.93;;;16.27;;
12163;SDS011;6145;50.192;10.064;2022-11-20T05:23:35;18.87;;;15.97;;
12163;SDS011;6145;50.192;10.064;2022-11-20T05:26:02;20.70;;;15.67;;
12163;SDS011;6145;50.192;10.064;2022-11-20T05:28:30;20.60;;;15.57;;
12163;SDS011;6145;50.192;10.064;2022-11-20T05:31:03;19.37;;;15.63;;
12163;SDS011;6145;50.192;10.064;2022-11-20T05:33:32;19.40;;;15.97;;
12163;SDS011;6145;50.192;10.064;2022-11-20T05:35:59;20.23;;;17.23;;
12163;SDS011;6145;50.192;10.064;2022-11-20T05:38:26;19.60;;;16.43;;
12163;SDS011;6145;50.192;10.064;2022-11-20T05:40:53;18.60;;;15.30;;
12163;SDS011;6145;50.192;10.064;2022-11-20T05:43:20;22.40;;;17.20;;
12163;SDS011;6145;50.192;10.064;2022-11-20T05:45:51;21.73;;;16.27;;
12163;SDS011;6145;50.192;10.064;2022-11-20T05:48:18;18.40;;;15.20;;
12163;SDS011;6145;50.192;10.064;2022-11-20T05:50:47;21.57;;;16.57;;
12163;SDS011;6145;50.192;10.064;2022-11-20T05:53:14;20.00;;;15.63;;
12163;SDS011;6145;50.192;10.064;2022-11-20T05:55:41;22.00;;;16.17;;
12163;SDS011;6145;50.192;10.064;2022-11-20T05:58:08;18.90;;;15.30;;
12163;SDS011;6145;50.192;10.064;2022-11-20T06:00:35;19.73;;;15.77;;
12163;SDS011;6145;50.192;10.064;2022-11-20T06:03:02;20.33;;;16.20;;
12163;SDS011;6145;50.192;10.064;2022-11-20T06:05:29;19.97;;;16.03;;
12163;SDS011;6145;50.192;10.064;2022-11-20T06:07:57;21.37;;;16.57;;
12163;SDS011;6145;50.192;10.064;2022-11-20T06:10:26;17.83;;;15.40;;
12163;SDS011;6145;50.192;10.064;2022-11-20T06:12:53;19.17;;;15.60;;
12163;SDS011;6145;50.192;10.064;2022-11-20T06:15:23;19.90;;;15.57;;
12163;SDS011;6145;50.192;10.064;2022-11-20T06:17:51;20.37;;;16.13;;
12163;SDS011;6145;50.192;10.064;2022-11-20T06:20:18;19.77;;;16.37;;
12163;SDS011;6145;50.192;10.064;2022-11-20T06:22:45;20.40;;;16.70;;
12163;SDS011;6145;50.192;10.064;2022-11-20T06:25:13;20.17;;;16.03;;
12163;SDS011;6145;50.192;10.064;2022-11-20T06:27:40;20.30;;;16.50;;
12163;SDS011;6145;50.192;10.064;2022-11-20T06:30:08;20.43;;;17.17;;
12163;SDS011;6145;50.192;10.064;2022-11-20T06:32:35;20.97;;;17.43;;
12163;SDS011;6145;50.192;10.064;2022-11-20T06:35:02;20.80;;;16.17;;
12163;SDS011;6145;50.192;10.064;2022-11-20T06:37:30;19.67;;;16.63;;
12163;SDS011;6145;50.192;10.064;2022-11-20T06:39:56;20.20;;;16.07;;
12163;SDS011;6145;50.192;10.064;2022-11-20T06:42:25;20.77;;;16.93;;
12163;SDS011;6145;50.192;10.064;2022-11-20T06:44:52;20.60;;;16.30;;
12163;SDS011;6145;50.192;10.064;2022-11-20T06:47:19;19.07;;;15.50;;
12163;SDS011;6145;50.192;10.064;2022-11-20T06:49:46;21.57;;;17.00;;
12163;SDS011;6145;50.192;10.064;2022-11-20T06:52:12;21.23;;;16.40;;
12163;SDS011;6145;50.192;10.064;2022-11-20T06:54:39;20.00;;;16.87;;
12163;SDS011;6145;50.192;10.064;2022-11-20T06:57:06;22.43;;;17.40;;
12163;SDS011;6145;50.192;10.064;2022-11-20T06:59:34;21.60;;;17.27;;
12163;SDS011;6145;50.192;10.064;2022-11-20T07:02:01;19.90;;;16.17;;
12163;SDS011;6145;50.192;10.064;2022-11-20T07:04:28;20.60;;;16.90;;
12163;SDS011;6145;50.192;10.064;2022-11-20T07:06:55;21.60;;;16.87;;
12163;SDS011;6145;50.192;10.064;2022-11-20T07:09:22;21.50;;;17.87;;
12163;SDS011;6145;50.192;10.064;2022-11-20T07:11:48;21.40;;;17.57;;
12163;SDS011;6145;50.192;10.064;2022-11-20T07:14:15;23.60;;;17.53;;
12163;SDS011;6145;50.192;10.064;2022-11-20T07:16:43;23.07;;;17.87;;
12163;SDS011;6145;50.192;10.064;2022-11-20T07:19:10;23.03;;;18.03;;
12163;SDS011;6145;50.192;10.064;2022-11-20T07:21:37;23.33;;;18.73;;
12163;SDS011;6145;50.192;10.064;2022-11-20T07:24:04;22.10;;;17.07;;
12163;SDS011;6145;50.192;10.064;2022-11-20T07:26:31;24.57;;;17.63;;
12163;SDS011;6145;50.192;10.064;2022-11-20T07:28:58;20.67;;;16.97;;
12163;SDS011;6145;50.192;10.064;2022-11-20T07:31:25;22.47;;;18.13;;
12163;SDS011;6145;50.192;10.064;2022-11-20T07:33:53;22.80;;;17.97;;
12163;SDS011;6145;50.192;10.064;2022-11-20T07:36:20;22.80;;;17.63;;
12163;SDS011;6145;50.192;10.064;2022-11-20T07:38:47;22.87;;;19.00;;
12163;SDS011;6145;50.192;10.064;2022-11-20T07:41:14;20.50;;;16.77;;
12163;SDS011;6145;50.192;10.064;2022-11-20T07:43:41;21.40;;;17.17;;
12163;SDS011;6145;50.192;10.064;2022-11-20T07:46:08;25.40;;;18.40;;
12163;SDS011;6145;50.192;10.064;2022-11-20T07:48:35;23.00;;;18.57;;
12163;SDS011;6145;50.192;10.064;2022-11-20T07:51:03;24.07;;;18.33;;
12163;SDS011;6145;50.192;10.064;2022-11-20T07:53:30;21.37;;;15.90;;
12163;SDS011;6145;50.192;10.064;2022-11-20T07:55:58;22.13;;;17.87;;
12163;SDS011;6145;50.192;10.064;2022-11-20T07:58:26;22.70;;;17.57;;
12163;SDS011;6145;50.192;10.064;2022-11-20T08:00:54;19.47;;;16.67;;
12163;SDS011;6145;50.192;10.064;2022-11-20T08:03:22;20.97;;;17.33;;
12163;SDS011;6145;50.192;10.064;2022-11-20T08:05:48;23.50;;;17.10;;
12163;SDS011;6145;50.192;10.064;2022-11-20T08:08:17;22.30;;;17.73;;
12163;SDS011;6145;50.192;10.064;2022-11-20T08:10:44;24.23;;;17.27;;
12163;SDS011;6145;50.192;10.064;2022-11-20T08:13:11;23.27;;;17.97;;
12163;SDS011;6145;50.192;10.064;2022-11-20T08:15:55;22.10;;;16.77;;
12163;SDS011;6145;50.192;10.064;2022-11-20T08:18:22;20.67;;;16.53;;
12163;SDS011;6145;50.192;10.064;2022-11-20T08:20:48;21.37;;;16.27;;
12163;SDS011;6145;50.192;10.064;2022-11-20T08:23:17;24.00;;;17.37;;
12163;SDS011;6145;50.192;10.064;2022-11-20T08:25:48;19.10;;;16.57;;
12163;SDS011;6145;50.192;10.064;2022-11-20T08:28:15;21.50;;;17.63;;
12163;SDS011;6145;50.192;10.064;2022-11-20T08:30:42;23.47;;;18.07;;
12163;SDS011;6145;50.192;10.064;2022-11-20T08:33:10;26.03;;;22.13;;
12163;SDS011;6145;50.192;10.064;2022-11-20T08:35:37;24.73;;;19.90;;
12163;SDS011;6145;50.192;10.064;2022-11-20T08:38:06;26.27;;;19.97;;
12163;SDS011;6145;50.192;10.064;2022-11-20T08:40:34;22.27;;;18.07;;
12163;SDS011;6145;50.192;10.064;2022-11-20T08:43:01;28.00;;;20.53;;
12163;SDS011;6145;50.192;10.064;2022-11-20T08:45:28;30.87;;;21.70;;
12163;SDS011;6145;50.192;10.064;2022-11-20T08:47:59;28.03;;;20.97;;
12163;SDS011;6145;50.192;10.064;2022-11-20T08:50:26;25.00;;;19.23;;
12163;SDS011;6145;50.192;10.064;2022-11-20T08:52:54;27.77;;;20.70;;
12163;SDS011;6145;50.192;10.064;2022-11-20T08:55:21;25.27;;;19.60;;
12163;SDS011;6145;50.192;10.064;2022-11-20T08:57:49;25.07;;;19.20;;
12163;SDS011;6145;50.192;10.064;2022-11-20T09:00:16;27.50;;;20.63;;
12163;SDS011;6145;50.192;10.064;2022-11-20T09:02:43;31.33;;;23.33;;
12163;SDS011;6145;50.192;10.064;2022-11-20T09:05:10;30.63;;;23.03;;
12163;SDS011;6145;50.192;10.064;2022-11-20T09:07:37;31.40;;;24.20;;
12163;SDS011;6145;50.192;10.064;2022-11-20T09:10:05;28.80;;;21.17;;
12163;SDS011;6145;50.192;10.064;2022-11-20T09:12:33;29.33;;;21.97;;
12163;SDS011;6145;50.192;10.064;2022-11-20T09:15:01;32.30;;;23.23;;
12163;SDS011;6145;50.192;10.064;2022-11-20T09:17:28;31.33;;;23.33;;
12163;SDS011;6145;50.192;10.064;2022-11-20T09:19:55;35.33;;;25.07;;
12163;SDS011;6145;50.192;10.064;2022-11-20T09:22:22;34.00;;;24.37;;
12163;SDS011;6145;50.192;10.064;2022-11-20T09:24:49;32.93;;;23.50;;
12163;SDS011;6145;50.192;10.064;2022-11-20T09:27:15;30.80;;;21.60;;
12163;SDS011;6145;50.192;10.064;2022-11-20T09:29:45;35.40;;;24.83;;
12163;SDS011;6145;50.192;10.064;2022-11-20T09:32:13;33.63;;;24.07;;
12163;SDS011;6145;50.192;10.064;2022-11-20T09:34:41;35.93;;;24.60;;
12163;SDS011;6145;50.192;10.064;2022-11-20T09:37:07;34.80;;;25.53;;
12163;SDS011;6145;50.192;10.064;2022-11-20T09:39:35;36.87;;;25.23;;
12163;SDS011;6145;50.192;10.064;2022-11-20T09:44:56;33.23;;;23.63;;
12163;SDS011;6145;50.192;10.064;2022-11-20T09:47:39;37.80;;;24.47;;
12163;SDS011;6145;50.192;10.064;2022-11-20T09:50:23;36.53;;;24.37;;
12163;SDS011;6145;50.192;10.064;2022-11-20T09:52:58;31.47;;;22.07;;
12163;SDS011;6145;50.192;10.064;2022-11-20T09:55:37;32.83;;;24.23;;
12163;SDS011;6145;50.192;10.064;2022-11-20T09:58:05;31.73;;;22.07;;
12163;SDS011;6145;50.192;10.064;2022-11-20T10:00:34;35.67;;;23.93;;
12163;SDS011;6145;50.192;10.064;2022-11-20T10:03:06;37.20;;;25.13;;
12163;SDS011;6145;50.192;10.064;2022-11-20T10:05:41;36.47;;;25.23;;
12163;SDS011;6145;50.192;10.064;2022-11-20T10:08:14;36.97;;;24.20;;
12163;SDS011;6145;50.192;10.064;2022-11-20T10:10:46;34.73;;;23.40;;
12163;SDS011;6145;50.192;10.064;2022-11-20T10:13:20;33.10;;;21.27;;
12163;SDS011;6145;50.192;10.064;2022-11-20T10:15:59;33.43;;;23.67;;
12163;SDS011;6145;50.192;10.064;2022-11-20T10:18:37;34.87;;;23.63;;
12163;SDS011;6145;50.192;10.064;2022-11-20T10:21:20;35.23;;;23.13;;
12163;SDS011;6145;50.192;10.064;2022-11-20T10:23:57;36.17;;;24.97;;
12163;SDS011;6145;50.192;10.064;2022-11-20T10:26:43;37.77;;;24.23;;
12163;SDS011;6145;50.192;10.064;2022-11-20T10:29:17;40.23;;;26.23;;
12163;SDS011;6145;50.192;10.064;2022-11-20T10:31:50;35.80;;;23.57;;
12163;SDS011;6145;50.192;10.064;2022-11-20T10:34:23;42.63;;;29.37;;
12163;SDS011;6145;50.192;10.064;2022-11-20T10:36:54;33.60;;;23.33;;
12163;SDS011;6145;50.192;10.064;2022-11-20T10:39:26;33.83;;;23.73;;
12163;SDS011;6145;50.192;10.064;2022-11-20T10:41:59;35.50;;;24.37;;
12163;SDS011;6145;50.192;10.064;2022-11-20T10:44:27;32.60;;;21.97;;
12163;SDS011;6145;50.192;10.064;2022-11-20T10:47:28;35.13;;;24.53;;
12163;SDS011;6145;50.192;10.064;2022-11-20T10:50:03;30.10;;;21.53;;
12163;SDS011;6145;50.192;10.064;2022-11-20T10:52:36;32.73;;;22.47;;
12163;SDS011;6145;50.192;10.064;2022-11-20T10:55:18;32.77;;;21.67;;
12163;SDS011;6145;50.192;10.064;2022-11-20T10:57:56;31.23;;;21.33;;
12163;SDS011;6145;50.192;10.064;2022-11-20T11:00:32;29.53;;;21.37;;
12163;SDS011;6145;50.192;10.064;2022-11-20T11:02:59;28.77;;;21.17;;
12163;SDS011;6145;50.192;10.064;2022-11-20T11:05:32;34.90;;;24.30;;
12163;SDS011;6145;50.192;10.064;2022-11-20T11:08:03;34.00;;;22.63;;
12163;SDS011;6145;50.192;10.064;2022-11-20T11:10:46;34.73;;;23.03;;
12163;SDS011;6145;50.192;10.064;2022-11-20T11:13:21;31.70;;;22.43;;
12163;SDS011;6145;50.192;10.064;2022-11-20T11:15:48;31.63;;;21.27;;
12163;SDS011;6145;50.192;10.064;2022-11-20T11:18:23;28.30;;;20.00;;
12163;SDS011;6145;50.192;10.064;2022-11-20T11:20:53;32.33;;;21.40;;
12163;SDS011;6145;50.192;10.064;2022-11-20T11:23:34;30.87;;;21.07;;
12163;SDS011;6145;50.192;10.064;2022-11-20T11:26:03;31.17;;;20.43;;
12163;SDS011;6145;50.192;10.064;2022-11-20T11:28:31;30.23;;;20.43;;
12163;SDS011;6145;50.192;10.064;2022-11-20T11:30:59;31.17;;;19.93;;
12163;SDS011;6145;50.192;10.064;2022-11-20T11:33:26;31.13;;;21.13;;
12163;SDS011;6145;50.192;10.064;2022-11-20T11:35:56;34.00;;;25.63;;
12163;SDS011;6145;50.192;10.064;2022-11-20T11:38:28;33.23;;;22.47;;
12163;SDS011;6145;50.192;10.064;2022-11-20T11:40:57;28.47;;;18.37;;
12163;SDS011;6145;50.192;10.064;2022-11-20T11:43:24;31.47;;;18.77;;
12163;SDS011;6145;50.192;10.064;2022-11-20T11:46:25;31.27;;;17.67;;
12163;SDS011;6145;50.192;10.064;2022-11-20T11:48:57;29.43;;;19.77;;
12163;SDS011;6145;50.192;10.064;2022-11-20T11:51:28;31.50;;;21.43;;
12163;SDS011;6145;50.192;10.064;2022-11-20T11:54:00;27.07;;;16.90;;
12163;SDS011;6145;50.192;10.064;2022-11-20T11:56:31;28.13;;;18.10;;
12163;SDS011;6145;50.192;10.064;2022-11-20T11:59:00;26.77;;;17.43;;
12163;SDS011;6145;50.192;10.064;2022-11-20T12:01:35;28.70;;;17.30;;
12163;SDS011;6145;50.192;10.064;2022-11-20T12:04:10;29.63;;;18.67;;
12163;SDS011;6145;50.192;10.064;2022-11-20T12:06:45;27.03;;;16.83;;
12163;SDS011;6145;50.192;10.064;2022-11-20T12:09:16;28.67;;;17.80;;
12163;SDS011;6145;50.192;10.064;2022-11-20T12:11:49;32.63;;;19.17;;
12163;SDS011;6145;50.192;10.064;2022-11-20T12:14:20;29.27;;;17.97;;
12163;SDS011;6145;50.192;10.064;2022-11-20T12:16:52;31.67;;;18.97;;
12163;SDS011;6145;50.192;10.064;2022-11-20T12:19:20;33.77;;;20.27;;
12163;SDS011;6145;50.192;10.064;2022-11-20T12:21:51;30.37;;;17.77;;
12163;SDS011;6145;50.192;10.064;2022-11-20T12:24:29;27.80;;;18.40;;
12163;SDS011;6145;50.192;10.064;2022-11-20T12:27:06;28.97;;;17.77;;
12163;SDS011;6145;50.192;10.064;2022-11-20T12:30:02;30.33;;;18.27;;
12163;SDS011;6145;50.192;10.064;2022-11-20T12:32:40;27.90;;;16.73;;
12163;SDS011;6145;50.192;10.064;2022-11-20T12:38:41;29.53;;;16.97;;
12163;SDS011;6145;50.192;10.064;2022-11-20T12:41:20;24.93;;;17.10;;
12163;SDS011;6145;50.192;10.064;2022-11-20T12:44:14;37.17;;;22.70;;
12163;SDS011;6145;50.192;10.064;2022-11-20T12:47:11;28.47;;;16.93;;
12163;SDS011;6145;50.192;10.064;2022-11-20T12:49:45;25.63;;;16.37;;
12163;SDS011;6145;50.192;10.064;2022-11-20T12:52:20;26.10;;;15.00;;
12163;SDS011;6145;50.192;10.064;2022-11-20T12:55:12;28.23;;;16.57;;
12163;SDS011;6145;50.192;10.064;2022-11-20T12:57:50;28.53;;;16.47;;
12163;SDS011;6145;50.192;10.064;2022-11-20T13:00:23;25.90;;;16.60;;
12163;SDS011;6145;50.192;10.064;2022-11-20T13:03:09;27.07;;;15.97;;
12163;SDS011;6145;50.192;10.064;2022-11-20T13:06:03;26.07;;;16.50;;
12163;SDS011;6145;50.192;10.064;2022-11-20T13:08:38;24.97;;;15.57;;
12163;SDS011;6145;50.192;10.064;2022-11-20T13:11:09;22.93;;;15.07;;
12163;SDS011;6145;50.192;10.064;2022-11-20T13:13:44;25.00;;;15.70;;
12163;SDS011;6145;50.192;10.064;2022-11-20T13:16:23;24.03;;;15.70;;
12163;SDS011;6145;50.192;10.064;2022-11-20T13:19:01;27.07;;;16.63;;
12163;SDS011;6145;50.192;10.064;2022-11-20T13:21:35;29.30;;;17.50;;
